Time;durP1;ratioP1;P1;durP2;ratioP2;P2;SDS_P1;SDS_P2;PMS_P1;PMS_P2;Temp;Humidity;BMP_temperature;BMP_pressure;BME280_temperature;BME280_humidity;BME280_pressure;Samples;Min_cycle;Max_cycle;Signal;HPM_P1;HPM_P2
2022/11/29 00:00:22;;;;;;;26.60;13.33;;;;;5.70;100860.00;;;;9865234;30;20252;-75
2022/11/29 00:05:24;;;;;;;29.00;13.33;;;;;5.60;100864.00;;;;9873762;29;20204;-76
2022/11/29 00:10:26;;;;;;;25.53;14.47;;;;;5.50;100862.00;;;;9851900;30;20204;-75
2022/11/29 00:15:27;;;;;;;30.70;13.47;;;;;5.50;100865.00;;;;9849425;30;20208;-75
2022/11/29 00:20:29;;;;;;;32.90;15.63;;;;;5.50;100862.00;;;;9849180;30;20683;-76
2022/11/29 00:25:31;;;;;;;36.83;14.97;;;;;5.50;100864.00;;;;9849568;30;20208;-75
2022/11/29 00:30:33;;;;;;;32.77;14.50;;;;;5.50;100863.00;;;;9849658;30;20231;-75
2022/11/29 00:35:35;;;;;;;36.53;14.80;;;;;5.60;100858.00;;;;9848586;30;20668;-76
2022/11/29 00:40:37;;;;;;;32.77;15.30;;;;;5.60;100869.00;;;;9861610;30;20641;-76
2022/11/29 00:45:39;;;;;;;28.50;15.00;;;;;5.60;100862.00;;;;9847641;30;20205;-75
2022/11/29 00:50:41;;;;;;;33.30;16.50;;;;;5.50;100867.00;;;;9863159;30;20901;-76
2022/11/29 00:55:44;;;;;;;38.90;15.20;;;;;5.50;100874.00;;;;9841672;30;20205;-75
2022/11/29 01:00:46;;;;;;;25.70;14.20;;;;;5.40;100878.00;;;;9847631;30;20765;-75
2022/11/29 01:05:48;;;;;;;32.73;13.50;;;;;5.40;100883.00;;;;9844977;30;20212;-76
2022/11/29 01:11:00;;;;;;;29.60;13.47;;;;;5.40;100881.00;;;;9858924;30;20625;-75
2022/11/29 01:16:03;;;;;;;28.03;14.10;;;;;5.40;100874.00;;;;9861138;30;20219;-75
2022/11/29 01:21:08;;;;;;;34.10;14.67;;;;;5.50;100886.00;;;;9830992;30;20208;-76
2022/11/29 01:26:13;;;;;;;23.27;12.57;;;;;5.50;100896.00;;;;9847399;30;20215;-75
2022/11/29 01:31:19;;;;;;;26.73;13.10;;;;;5.40;100892.00;;;;9847291;30;20208;-75
2022/11/29 01:36:21;;;;;;;23.40;13.27;;;;;5.30;100888.00;;;;9859648;30;20204;-76
2022/11/29 01:41:26;;;;;;;29.00;11.80;;;;;5.20;100899.00;;;;9846555;30;20204;-76
2022/11/29 01:46:31;;;;;;;22.30;11.43;;;;;5.10;100897.00;;;;9860173;30;20200;-76
2022/11/29 01:51:35;;;;;;;21.97;11.37;;;;;4.90;100908.00;;;;9845220;30;20215;-75
2022/11/29 01:56:38;;;;;;;25.27;10.07;;;;;4.80;100915.00;;;;9844498;30;20207;-76
2022/11/29 02:01:40;;;;;;;29.73;11.60;;;;;4.70;100930.00;;;;9846603;30;20255;-77
2022/11/29 02:06:43;;;;;;;23.23;10.80;;;;;4.60;100925.00;;;;9862099;30;20231;-78
2022/11/29 02:12:25;;;;;;;26.53;12.07;;;;;4.50;100928.00;;;;9861968;30;20277;-77
2022/11/29 02:17:45;;;;;;;23.43;11.23;;;;;4.40;100932.00;;;;9822601;30;20204;-77
2022/11/29 02:23:12;;;;;;;19.57;10.83;;;;;4.30;100925.00;;;;9847876;30;20249;-77
2022/11/29 02:28:44;;;;;;;22.13;11.03;;;;;4.20;100927.00;;;;9831410;30;20201;-77
2022/11/29 02:33:55;;;;;;;19.70;10.60;;;;;4.10;100937.00;;;;9818813;30;20732;-77
2022/11/29 02:39:27;;;;;;;24.50;11.07;;;;;4.20;100952.00;;;;9841799;30;20201;-77
2022/11/29 02:44:48;;;;;;;21.80;11.07;;;;;4.40;100970.00;;;;9844483;30;20239;-77
2022/11/29 02:49:59;;;;;;;22.33;11.00;;;;;4.60;100976.00;;;;9828214;30;20266;-78
2022/11/29 02:55:15;;;;;;;23.97;10.93;;;;;4.70;100981.00;;;;9834490;30;20201;-77
2022/11/29 03:00:21;;;;;;;17.77;10.87;;;;;4.90;100977.00;;;;9866476;30;20235;-78
2022/11/29 03:05:35;;;;;;;25.53;13.10;;;;;5.00;100963.00;;;;9853608;30;20283;-77
2022/11/29 03:10:58;;;;;;;22.33;12.40;;;;;5.10;100977.00;;;;9857405;30;20672;-77
2022/11/29 03:16:21;;;;;;;22.70;12.73;;;;;5.30;100986.00;;;;9852909;30;20719;-78
2022/11/29 03:21:33;;;;;;;23.10;13.23;;;;;5.40;100987.00;;;;9848771;30;20201;-78
2022/11/29 03:26:42;;;;;;;27.97;13.87;;;;;5.50;100987.00;;;;9867381;30;20196;-77
2022/11/29 03:31:54;;;;;;;31.87;13.43;;;;;5.60;100992.00;;;;9867083;30;20914;-78
2022/11/29 03:37:13;;;;;;;28.33;14.10;;;;;5.80;100982.00;;;;9845558;30;20220;-78
2022/11/29 03:42:46;;;;;;;30.30;12.87;;;;;5.80;100981.00;;;;9864677;30;20285;-78
2022/11/29 03:48:19;;;;;;;27.57;13.07;;;;;5.90;100989.00;;;;9849407;30;20204;-77
2022/11/29 03:53:38;;;;;;;24.20;12.33;;;;;5.90;100999.00;;;;9865726;30;20220;-77
2022/11/29 03:58:58;;;;;;;23.37;12.20;;;;;6.00;100996.00;;;;9850901;30;20580;-78
2022/11/29 04:04:24;;;;;;;28.80;12.90;;;;;6.00;101004.00;;;;9859114;30;20228;-78
2022/11/29 04:09:38;;;;;;;25.57;12.33;;;;;6.10;101019.00;;;;9848596;30;20223;-78
2022/11/29 04:15:08;;;;;;;23.07;11.67;;;;;6.10;101016.00;;;;9850815;30;20196;-77
2022/11/29 04:20:30;;;;;;;24.90;13.03;;;;;6.10;101017.00;;;;9848572;30;20222;-78
2022/11/29 04:26:17;;;;;;;27.83;12.93;;;;;6.10;101015.00;;;;9849002;30;20224;-77
2022/11/29 04:31:31;;;;;;;25.00;11.00;;;;;6.10;101025.00;;;;9850331;30;20304;-77
2022/11/29 04:36:59;;;;;;;20.97;11.70;;;;;6.00;101020.00;;;;9864192;30;20209;-77
2022/11/29 04:42:58;;;;;;;21.70;11.50;;;;;6.00;101020.00;;;;9863655;30;20210;-77
2022/11/29 04:48:19;;;;;;;21.63;11.83;;;;;6.00;101028.00;;;;9735207;30;20207;-77
2022/11/29 04:53:28;;;;;;;26.77;11.10;;;;;5.90;101034.00;;;;9816031;30;20220;-78
2022/11/29 04:58:50;;;;;;;17.93;10.63;;;;;5.80;101041.00;;;;9861639;30;20209;-77
2022/11/29 05:04:00;;;;;;;16.43;9.93;;;;;5.60;101054.00;;;;9848474;30;20228;-77
2022/11/29 05:09:45;;;;;;;21.17;10.53;;;;;5.50;101059.00;;;;9847983;30;20209;-77
2022/11/29 05:15:11;;;;;;;17.97;9.37;;;;;5.30;101058.00;;;;9838898;30;20216;-77
2022/11/29 05:20:31;;;;;;;21.80;10.40;;;;;5.20;101071.00;;;;9841670;30;20213;-77
2022/11/29 05:26:00;;;;;;;18.63;10.37;;;;;5.10;101079.00;;;;9819423;30;20242;-77
2022/11/29 05:31:32;;;;;;;18.63;9.20;;;;;5.00;101084.00;;;;9819250;30;20225;-78
2022/11/29 05:36:58;;;;;;;16.03;9.20;;;;;4.90;101094.00;;;;9847010;30;20851;-78
2022/11/29 05:42:12;;;;;;;24.07;10.93;;;;;4.90;101107.00;;;;9848573;30;20592;-77
2022/11/29 05:47:22;;;;;;;19.30;10.17;;;;;4.90;101117.00;;;;9834292;30;20207;-76
2022/11/29 05:52:55;;;;;;;22.63;10.70;;;;;5.00;101123.00;;;;9846363;30;20338;-77
2022/11/29 05:57:59;;;;;;;19.97;10.63;;;;;5.10;101134.00;;;;9861779;30;20204;-78
2022/11/29 06:03:34;;;;;;;21.37;11.90;;;;;5.30;101140.00;;;;9861028;30;20661;-77
2022/11/29 06:08:49;;;;;;;22.73;11.03;;;;;5.40;101130.00;;;;9847453;30;20196;-77
2022/11/29 06:14:12;;;;;;;21.00;12.67;;;;;5.40;101146.00;;;;9846279;30;20268;-77
2022/11/29 06:19:26;;;;;;;24.20;12.27;;;;;5.50;101149.00;;;;9853337;30;20208;-77
2022/11/29 06:24:28;;;;;;;19.70;11.70;;;;;5.60;101156.00;;;;9861163;30;20457;-77
2022/11/29 06:29:53;;;;;;;19.63;11.47;;;;;5.70;101163.00;;;;9857740;30;20204;-77
2022/11/29 06:35:34;;;;;;;18.13;11.20;;;;;5.80;101174.00;;;;9839084;30;20257;-77
2022/11/29 06:40:36;;;;;;;26.60;12.67;;;;;5.90;101173.00;;;;9838352;30;20591;-78
2022/11/29 06:45:45;;;;;;;25.90;12.83;;;;;6.00;101171.00;;;;9860837;30;20275;-77
2022/11/29 06:51:24;;;;;;;25.40;12.10;;;;;6.10;101172.00;;;;9867646;30;20216;-77
2022/11/29 06:56:50;;;;;;;25.40;13.53;;;;;6.10;101178.00;;;;9882255;30;20246;-78
2022/11/29 07:02:19;;;;;;;29.80;14.13;;;;;6.20;101191.00;;;;9852264;30;20232;-77
2022/11/29 07:07:22;;;;;;;21.90;12.67;;;;;6.20;101187.00;;;;9835703;30;20233;-77
2022/11/29 07:12:25;;;;;;;26.60;13.17;;;;;6.20;101189.00;;;;9850522;30;20934;-77
2022/11/29 07:17:31;;;;;;;28.87;13.23;;;;;6.10;101186.00;;;;9853658;30;20205;-77
2022/11/29 07:23:07;;;;;;;22.10;12.77;;;;;6.10;101200.00;;;;9850078;30;20205;-78
2022/11/29 07:28:19;;;;;;;22.67;13.87;;;;;6.00;101204.00;;;;9863978;30;20200;-77
2022/11/29 07:34:04;;;;;;;21.87;12.77;;;;;6.00;101220.00;;;;9850634;30;20221;-77
2022/11/29 07:39:45;;;;;;;34.43;15.17;;;;;6.00;101222.00;;;;9819715;30;20262;-77
2022/11/29 07:44:49;;;;;;;29.97;14.10;;;;;6.00;101229.00;;;;9809725;30;20204;-77
2022/11/29 07:49:51;;;;;;;21.40;12.77;;;;;6.00;101228.00;;;;9821249;30;20204;-77
2022/11/29 07:54:53;;;;;;;25.03;12.97;;;;;6.00;101234.00;;;;9850588;30;20764;-78
2022/11/29 07:59:55;;;;;;;27.77;14.57;;;;;6.00;101236.00;;;;9847978;30;20282;-78
2022/11/29 08:04:57;;;;;;;26.83;13.03;;;;;6.00;101236.00;;;;9836674;30;20295;-77
2022/11/29 08:09:59;;;;;;;25.13;13.13;;;;;6.10;101246.00;;;;9863741;30;20659;-77
2022/11/29 08:15:01;;;;;;;26.70;14.30;;;;;6.20;101260.00;;;;9855527;30;20205;-77
2022/11/29 08:20:04;;;;;;;28.87;13.63;;;;;6.40;101265.00;;;;9844632;30;20200;-77
2022/11/29 08:25:07;;;;;;;24.20;14.30;;;;;6.50;101275.00;;;;9833270;30;20247;-77
2022/11/29 08:30:09;;;;;;;26.73;13.67;;;;;6.60;101264.00;;;;9864144;30;20262;-77
2022/11/29 08:35:11;;;;;;;26.37;14.77;;;;;6.60;101258.00;;;;9869023;30;20211;-76
2022/11/29 08:40:14;;;;;;;25.23;15.27;;;;;6.70;101273.00;;;;9816180;30;20665;-77
2022/11/29 08:45:16;;;;;;;27.90;15.23;;;;;6.80;101282.00;;;;9836810;30;20205;-77
2022/11/29 08:50:18;;;;;;;27.07;15.83;;;;;6.90;101289.00;;;;9837042;30;20201;-77
2022/11/29 08:55:21;;;;;;;33.20;16.23;;;;;7.00;101313.00;;;;9837096;30;20208;-77
2022/11/29 09:00:23;;;;;;;29.80;16.60;;;;;7.20;101301.00;;;;9830409;30;20231;-77
2022/11/29 09:05:25;;;;;;;30.03;16.57;;;;;7.40;101301.00;;;;9847058;30;20656;-77
2022/11/29 09:10:27;;;;;;;34.93;17.07;;;;;7.60;101318.00;;;;9817731;30;20208;-77
2022/11/29 09:15:28;;;;;;;30.20;17.23;;;;;7.90;101326.00;;;;9839642;30;20220;-77
2022/11/29 09:20:32;;;;;;;32.63;17.27;;;;;8.00;101334.00;;;;9836866;30;20212;-77
2022/11/29 09:25:33;;;;;;;29.63;16.03;;;;;8.00;101333.00;;;;9844445;30;20733;-77
2022/11/29 09:30:36;;;;;;;32.23;16.20;;;;;7.90;101335.00;;;;9861310;30;20274;-77
2022/11/29 09:35:40;;;;;;;31.07;15.07;;;;;8.00;101348.00;;;;9852450;30;20239;-77
2022/11/29 09:41:26;;;;;;;28.33;14.90;;;;;8.10;101360.00;;;;9852131;30;20209;-77
2022/11/29 09:46:55;;;;;;;28.97;13.27;;;;;8.00;101372.00;;;;9838788;30;20969;-78
2022/11/29 09:52:04;;;;;;;25.77;15.30;;;;;8.00;101369.00;;;;9845433;30;20236;-77
2022/11/29 09:57:07;;;;;;;28.63;16.37;;;;;8.20;101372.00;;;;9849071;30;20204;-77
2022/11/29 10:02:34;;;;;;;31.27;16.50;;;;;8.20;101368.00;;;;9861282;30;20283;-77
2022/11/29 10:07:49;;;;;;;29.83;15.33;;;;;8.20;101372.00;;;;9844101;30;20212;-77
2022/11/29 10:12:55;;;;;;;32.40;15.50;;;;;8.30;101379.00;;;;9814679;30;20220;-77
2022/11/29 10:18:22;;;;;;;29.80;15.90;;;;;8.40;101381.00;;;;9852372;30;20208;-77
2022/11/29 10:23:35;;;;;;;29.37;16.37;;;;;8.50;101378.00;;;;9830935;30;20189;-77
2022/11/29 10:28:43;;;;;;;29.30;15.70;;;;;8.50;101372.00;;;;9849316;30;20204;-77
2022/11/29 10:33:46;;;;;;;30.97;16.40;;;;;8.50;101375.00;;;;9835340;30;20277;-77
2022/11/29 10:38:49;;;;;;;38.60;16.77;;;;;8.60;101369.00;;;;9819314;30;20237;-77
2022/11/29 10:43:57;;;;;;;32.13;15.13;;;;;8.50;101375.00;;;;9874168;30;20250;-77
2022/11/29 10:49:05;;;;;;;28.43;14.30;;;;;8.40;101371.00;;;;9852573;30;20243;-77
2022/11/29 10:54:32;;;;;;;28.00;14.00;;;;;8.20;101385.00;;;;9857780;30;20224;-77
2022/11/29 10:59:34;;;;;;;27.27;14.50;;;;;8.00;101390.00;;;;9842538;30;20235;-76
2022/11/29 11:04:44;;;;;;;33.80;15.43;;;;;8.10;101395.00;;;;9854738;30;20724;-76
2022/11/29 11:09:48;;;;;;;33.60;16.13;;;;;8.10;101388.00;;;;9879312;29;20421;-77
2022/11/29 11:14:50;;;;;;;41.03;16.67;;;;;8.10;101393.00;;;;9820478;30;20220;-76
2022/11/29 11:19:56;;;;;;;34.03;16.90;;;;;8.20;101386.00;;;;9848427;30;20228;-76
2022/11/29 11:24:59;;;;;;;32.33;16.10;;;;;8.50;101387.00;;;;9865373;30;20224;-77
2022/11/29 11:30:04;;;;;;;34.33;16.60;;;;;8.80;101381.00;;;;9851574;30;20212;-76
2022/11/29 11:35:21;;;;;;;33.33;16.93;;;;;9.00;101390.00;;;;9875026;30;20742;-76
2022/11/29 11:40:29;;;;;;;48.03;18.60;;;;;8.80;101384.00;;;;9839410;30;20287;-76
2022/11/29 11:45:35;;;;;;;35.37;17.87;;;;;8.80;101391.00;;;;9863864;30;20744;-77
2022/11/29 11:50:51;;;;;;;35.07;17.00;;;;;8.70;101403.00;;;;9862947;30;20672;-76
2022/11/29 11:55:54;;;;;;;31.80;15.67;;;;;8.60;101414.00;;;;9819645;30;20268;-76
2022/11/29 12:01:11;;;;;;;35.73;16.73;;;;;8.60;101420.00;;;;9860664;30;20268;-76
2022/11/29 12:06:24;;;;;;;30.03;15.43;;;;;8.70;101423.00;;;;9855998;30;20215;-77
2022/11/29 12:11:36;;;;;;;29.30;14.60;;;;;8.90;101428.00;;;;9862871;30;20223;-76
2022/11/29 12:16:39;;;;;;;28.50;14.03;;;;;8.80;101434.00;;;;9842988;30;20213;-76
2022/11/29 12:21:45;;;;;;;30.53;15.10;;;;;8.90;101434.00;;;;9861406;30;20305;-77
2022/11/29 12:26:47;;;;;;;32.87;15.83;;;;;9.20;101441.00;;;;9817362;30;20699;-77
2022/11/29 12:32:17;;;;;;;30.67;15.33;;;;;9.20;101431.00;;;;9836114;30;20209;-77
2022/11/29 12:37:28;;;;;;;29.33;16.73;;;;;8.90;101445.00;;;;9847178;30;20192;-77
2022/11/29 12:42:55;;;;;;;29.97;15.43;;;;;8.80;101465.00;;;;9835275;30;20228;-77
2022/11/29 12:48:18;;;;;;;31.47;16.23;;;;;8.90;101462.00;;;;9851567;30;20261;-77
2022/11/29 12:53:27;;;;;;;29.13;16.93;;;;;9.10;101474.00;;;;9861205;30;20269;-77
2022/11/29 12:58:45;;;;;;;34.60;17.10;;;;;9.30;101472.00;;;;9876440;30;20208;-77
2022/11/29 13:04:02;;;;;;;34.20;17.07;;;;;9.00;101459.00;;;;9833908;30;20228;-77
2022/11/29 13:09:31;;;;;;;32.37;17.20;;;;;9.00;101472.00;;;;9862856;30;20231;-77
2022/11/29 13:14:57;;;;;;;34.77;18.90;;;;;9.20;101467.00;;;;9847664;30;20224;-77
2022/11/29 13:20:13;;;;;;;31.67;16.63;;;;;9.40;101460.00;;;;9859398;30;20280;-77
2022/11/29 13:25:34;;;;;;;29.03;16.27;;;;;9.60;101458.00;;;;9846624;30;20200;-77
2022/11/29 13:30:38;;;;;;;26.13;15.13;;;;;9.70;101468.00;;;;9862885;30;20207;-77
2022/11/29 13:35:55;;;;;;;26.83;14.67;;;;;9.60;101476.00;;;;9832855;30;20222;-76
2022/11/29 13:41:19;;;;;;;24.40;14.83;;;;;9.30;101475.00;;;;9878710;30;20207;-77
2022/11/29 13:46:29;;;;;;;23.53;13.67;;;;;9.00;101481.00;;;;9861227;30;20207;-77
2022/11/29 13:51:37;;;;;;;27.67;14.73;;;;;9.00;101478.00;;;;9847242;30;20243;-77
2022/11/29 13:56:46;;;;;;;22.30;13.50;;;;;9.00;101489.00;;;;9847818;30;20196;-77
2022/11/29 14:01:52;;;;;;;25.90;15.37;;;;;8.90;101480.00;;;;9848281;30;20232;-77
2022/11/29 14:07:03;;;;;;;25.20;13.53;;;;;8.70;101485.00;;;;9855419;30;20310;-77
2022/11/29 14:12:17;;;;;;;23.37;14.43;;;;;8.60;101479.00;;;;9844479;30;20222;-77
2022/11/29 14:17:46;;;;;;;26.47;14.10;;;;;8.60;101477.00;;;;9835599;30;20200;-77
2022/11/29 14:23:03;;;;;;;29.23;14.27;;;;;8.60;101484.00;;;;9826267;30;20203;-77
2022/11/29 14:28:11;;;;;;;23.83;13.80;;;;;8.70;101480.00;;;;9825659;30;21343;-77
2022/11/29 14:33:19;;;;;;;23.37;13.73;;;;;8.60;101490.00;;;;9856972;30;20698;-77
2022/11/29 14:38:46;;;;;;;22.77;12.93;;;;;8.60;101484.00;;;;9857040;30;20215;-77
2022/11/29 14:43:48;;;;;;;23.07;13.33;;;;;8.50;101489.00;;;;9817595;30;20301;-76
2022/11/29 14:48:56;;;;;;;25.07;12.97;;;;;8.40;101497.00;;;;9846243;30;20208;-77
2022/11/29 14:54:15;;;;;;;23.30;12.27;;;;;8.30;101503.00;;;;9856355;30;20650;-77
2022/11/29 14:59:50;;;;;;;24.03;13.67;;;;;8.20;101500.00;;;;9851475;30;20698;-77
2022/11/29 15:04:55;;;;;;;24.37;12.47;;;;;8.20;101503.00;;;;9855617;30;20249;-77
2022/11/29 15:10:03;;;;;;;19.87;12.97;;;;;8.10;101509.00;;;;9863462;30;20211;-77
2022/11/29 15:15:35;;;;;;;21.77;12.57;;;;;8.00;101499.00;;;;9851022;30;20273;-77
2022/11/29 15:20:43;;;;;;;26.50;13.10;;;;;7.90;101504.00;;;;9847971;30;20265;-77
2022/11/29 15:25:59;;;;;;;26.20;12.87;;;;;7.70;101515.00;;;;9860091;30;20199;-77
2022/11/29 15:31:06;;;;;;;20.27;12.47;;;;;7.60;101510.00;;;;9822527;30;20210;-77
2022/11/29 15:36:19;;;;;;;26.90;12.90;;;;;7.50;101526.00;;;;9843621;30;20208;-77
2022/11/29 15:41:32;;;;;;;22.10;12.80;;;;;7.30;101518.00;;;;9850586;30;20203;-77
2022/11/29 15:46:34;;;;;;;20.60;12.90;;;;;7.20;101531.00;;;;9851136;30;20207;-77
2022/11/29 15:51:38;;;;;;;24.33;13.60;;;;;7.10;101527.00;;;;9850678;30;20220;-77
2022/11/29 15:56:42;;;;;;;27.87;14.07;;;;;7.10;101522.00;;;;9847467;30;20208;-77
2022/11/29 16:01:47;;;;;;;22.00;12.97;;;;;7.00;101533.00;;;;9850678;30;20232;-78
2022/11/29 16:06:50;;;;;;;24.43;12.73;;;;;6.90;101544.00;;;;9846130;30;20719;-77
2022/11/29 16:11:52;;;;;;;26.80;13.80;;;;;6.90;101533.00;;;;9842841;30;20254;-77
2022/11/29 16:16:58;;;;;;;25.53;13.80;;;;;6.90;101543.00;;;;9839861;30;20208;-78
2022/11/29 16:22:09;;;;;;;21.83;12.00;;;;;6.90;101543.00;;;;9830073;30;20287;-78
2022/11/29 16:27:13;;;;;;;24.23;13.83;;;;;6.90;101552.00;;;;9860939;30;20216;-77
2022/11/29 16:32:24;;;;;;;23.03;12.93;;;;;6.90;101536.00;;;;9843872;30;20208;-77
2022/11/29 16:37:34;;;;;;;27.87;12.90;;;;;6.80;101542.00;;;;9840380;30;20207;-78
2022/11/29 16:42:37;;;;;;;23.53;13.63;;;;;6.60;101550.00;;;;9836536;30;20676;-78
2022/11/29 16:47:51;;;;;;;23.20;13.93;;;;;6.50;101546.00;;;;9866728;30;20227;-77
2022/11/29 16:52:53;;;;;;;25.77;13.53;;;;;6.30;101544.00;;;;9855679;30;20213;-77
2022/11/29 16:57:58;;;;;;;25.97;13.27;;;;;6.20;101547.00;;;;9845038;30;20212;-78
2022/11/29 17:02:59;;;;;;;22.40;13.00;;;;;6.10;101536.00;;;;9849981;30;20231;-78
2022/11/29 17:08:01;;;;;;;23.10;14.37;;;;;6.00;101534.00;;;;9864586;30;20235;-77
2022/11/29 17:13:03;;;;;;;22.93;12.37;;;;;5.90;101534.00;;;;9836188;30;20221;-77
2022/11/29 17:18:05;;;;;;;19.73;12.10;;;;;5.90;101539.00;;;;9864874;30;20200;-78
2022/11/29 17:23:08;;;;;;;34.47;18.77;;;;;5.90;101539.00;;;;9850692;30;20204;-77
2022/11/29 17:28:09;;;;;;;32.00;15.93;;;;;5.80;101531.00;;;;9834844;30;20211;-77
2022/11/29 17:33:11;;;;;;;25.93;14.27;;;;;5.70;101532.00;;;;9815617;30;20680;-77
2022/11/29 17:38:13;;;;;;;24.97;12.97;;;;;5.60;101546.00;;;;9834870;30;20231;-78
2022/11/29 17:43:15;;;;;;;24.50;14.67;;;;;5.60;101561.00;;;;9864487;30;20192;-77
2022/11/29 17:48:17;;;;;;;32.37;16.37;;;;;5.70;101574.00;;;;9863883;30;20684;-78
2022/11/29 17:53:19;;;;;;;36.10;19.77;;;;;5.80;101581.00;;;;9864010;30;20212;-77
2022/11/29 17:58:21;;;;;;;30.47;17.40;;;;;5.90;101581.00;;;;9863145;30;20261;-77
2022/11/29 18:03:23;;;;;;;29.57;15.43;;;;;6.00;101586.00;;;;9849185;30;20692;-77
2022/11/29 18:08:25;;;;;;;30.13;15.87;;;;;6.00;101576.00;;;;9834081;30;20232;-77
2022/11/29 18:13:27;;;;;;;33.93;16.00;;;;;6.10;101585.00;;;;9855870;30;20220;-78
2022/11/29 18:18:30;;;;;;;34.80;16.87;;;;;6.20;101589.00;;;;9856887;30;20612;-78
2022/11/29 18:23:35;;;;;;;27.10;16.03;;;;;6.20;101583.00;;;;9870798;30;20208;-77
2022/11/29 18:28:39;;;;;;;27.67;15.67;;;;;6.20;101586.00;;;;9870428;30;20215;-77
2022/11/29 18:33:43;;;;;;;32.87;15.60;;;;;6.20;101591.00;;;;9855811;30;20270;-77
2022/11/29 18:38:46;;;;;;;32.60;16.93;;;;;6.10;101595.00;;;;9856214;30;20197;-77
2022/11/29 18:43:53;;;;;;;29.97;16.07;;;;;6.10;101588.00;;;;9882628;29;20212;-77
2022/11/29 18:48:55;;;;;;;31.40;16.93;;;;;6.10;101599.00;;;;9856004;30;20200;-77
2022/11/29 18:53:58;;;;;;;31.27;16.17;;;;;6.10;101600.00;;;;9869937;30;20212;-77
2022/11/29 18:59:09;;;;;;;30.90;16.17;;;;;6.20;101601.00;;;;9870502;30;20207;-77
2022/11/29 19:04:20;;;;;;;40.53;18.93;;;;;6.20;101596.00;;;;9854621;30;20235;-78
2022/11/29 19:09:22;;;;;;;43.77;18.70;;;;;6.20;101603.00;;;;9854817;30;20244;-77
2022/11/29 19:14:24;;;;;;;41.63;17.77;;;;;6.10;101623.00;;;;9868978;30;20224;-77
2022/11/29 19:19:26;;;;;;;34.83;18.13;;;;;6.10;101624.00;;;;9851681;30;20208;-77
2022/11/29 19:24:28;;;;;;;32.93;16.13;;;;;6.10;101639.00;;;;9861924;30;20259;-78
2022/11/29 19:29:30;;;;;;;43.73;21.40;;;;;6.10;101644.00;;;;9854312;30;20200;-77
2022/11/29 19:34:39;;;;;;;37.37;17.60;;;;;6.10;101646.00;;;;9868269;30;20216;-78
2022/11/29 19:39:41;;;;;;;34.13;17.80;;;;;6.20;101640.00;;;;9853084;30;20236;-77
2022/11/29 19:44:43;;;;;;;37.57;18.43;;;;;6.30;101633.00;;;;9867528;30;20213;-78
2022/11/29 19:50:05;;;;;;;32.00;15.97;;;;;6.30;101629.00;;;;9852966;30;20295;-76
2022/11/29 19:55:08;;;;;;;32.10;17.50;;;;;6.30;101630.00;;;;9853639;30;20228;-77
2022/11/29 20:00:10;;;;;;;33.70;16.70;;;;;6.30;101641.00;;;;9852647;30;20258;-77
2022/11/29 20:05:13;;;;;;;39.60;19.10;;;;;6.30;101643.00;;;;9853183;30;20208;-77
2022/11/29 20:10:14;;;;;;;34.53;17.23;;;;;6.30;101656.00;;;;9837431;30;20197;-77
2022/11/29 20:15:16;;;;;;;41.33;17.03;;;;;6.30;101656.00;;;;9867554;30;20205;-77
2022/11/29 20:20:18;;;;;;;38.03;17.37;;;;;6.20;101650.00;;;;9851345;30;20204;-77
2022/11/29 20:25:21;;;;;;;34.90;15.70;;;;;6.20;101656.00;;;;9833539;30;20225;-78
2022/11/29 20:30:24;;;;;;;64.77;29.83;;;;;6.20;101671.00;;;;9866393;30;20632;-78
2022/11/29 20:35:27;;;;;;;50.63;24.43;;;;;6.10;101670.00;;;;9850465;30;20242;-78
2022/11/29 20:40:42;;;;;;;42.93;16.87;;;;;6.10;101686.00;;;;9851556;30;20201;-77
2022/11/29 20:45:44;;;;;;;55.63;32.33;;;;;6.00;101687.00;;;;9851707;30;20203;-77
2022/11/29 20:50:55;;;;;;;41.97;19.53;;;;;6.00;101690.00;;;;9866237;30;20197;-77
2022/11/29 20:55:57;;;;;;;46.43;22.67;;;;;6.00;101704.00;;;;9865409;30;20269;-78
2022/11/29 21:00:59;;;;;;;36.80;15.77;;;;;5.90;101697.00;;;;9850641;30;20240;-77
2022/11/29 21:06:04;;;;;;;35.03;15.63;;;;;5.80;101700.00;;;;9865516;30;20211;-77
2022/11/29 21:11:09;;;;;;;35.10;16.23;;;;;5.80;101707.00;;;;9880166;29;20204;-79
2022/11/29 21:16:11;;;;;;;29.47;16.80;;;;;5.60;101703.00;;;;9851026;30;20230;-77
2022/11/29 21:21:43;;;;;;;36.70;15.67;;;;;5.60;101706.00;;;;9864771;30;20719;-77
2022/11/29 21:26:50;;;;;;;36.50;18.47;;;;;5.50;101688.00;;;;9856633;30;20240;-78
2022/11/29 21:31:53;;;;;;;31.37;16.47;;;;;5.50;101691.00;;;;9840847;30;20208;-77
2022/11/29 21:36:57;;;;;;;33.97;16.67;;;;;5.60;101688.00;;;;9835571;30;20220;-77
2022/11/29 21:41:59;;;;;;;29.90;14.77;;;;;5.60;101691.00;;;;9834685;30;20246;-77
2022/11/29 21:47:01;;;;;;;36.27;17.30;;;;;5.70;101685.00;;;;9834317;30;20231;-77
2022/11/29 21:52:04;;;;;;;38.00;16.50;;;;;5.80;101687.00;;;;9848721;30;20573;-78
2022/11/29 21:57:06;;;;;;;33.53;16.00;;;;;5.80;101702.00;;;;9856189;30;20287;-77
2022/11/29 22:02:07;;;;;;;33.70;14.93;;;;;5.80;101695.00;;;;9855414;30;20286;-77
2022/11/29 22:07:10;;;;;;;30.50;14.87;;;;;5.80;101700.00;;;;9817013;30;20253;-77
2022/11/29 22:12:11;;;;;;;31.87;16.23;;;;;5.80;101703.00;;;;9848477;30;20601;-77
2022/11/29 22:17:33;;;;;;;27.37;14.97;;;;;5.70;101707.00;;;;9848267;30;20676;-78
2022/11/29 22:22:35;;;;;;;36.60;16.30;;;;;5.60;101702.00;;;;9843483;30;20212;-77
2022/11/29 22:27:37;;;;;;;38.27;16.73;;;;;5.60;101697.00;;;;9828708;30;20270;-77
2022/11/29 22:32:39;;;;;;;30.30;15.53;;;;;5.60;101699.00;;;;9834095;30;20282;-77
2022/11/29 22:37:41;;;;;;;32.67;15.67;;;;;5.60;101690.00;;;;9825562;30;20209;-77
2022/11/29 22:42:42;;;;;;;37.20;15.20;;;;;5.60;101704.00;;;;9811904;30;20201;-77
2022/11/29 22:47:44;;;;;;;39.30;16.10;;;;;5.60;101708.00;;;;9808577;30;20227;-77
2022/11/29 22:52:47;;;;;;;41.90;16.93;;;;;5.60;101718.00;;;;9846808;30;20243;-77
2022/11/29 22:57:52;;;;;;;30.43;16.17;;;;;5.60;101720.00;;;;9830843;30;20213;-77
2022/11/29 23:02:57;;;;;;;33.97;16.00;;;;;5.50;101719.00;;;;9853018;30;20224;-77
2022/11/29 23:07:58;;;;;;;30.17;14.90;;;;;5.50;101710.00;;;;9837573;30;20308;-77
2022/11/29 23:13:01;;;;;;;29.77;15.03;;;;;5.40;101713.00;;;;9852802;30;20223;-77
2022/11/29 23:18:03;;;;;;;30.77;15.97;;;;;5.50;101735.00;;;;9879247;29;20207;-77
2022/11/29 23:23:05;;;;;;;34.87;15.53;;;;;5.50;101722.00;;;;9851849;30;20204;-77
2022/11/29 23:28:07;;;;;;;39.30;17.13;;;;;5.50;101724.00;;;;9848527;30;20214;-77
2022/11/29 23:33:09;;;;;;;35.37;16.23;;;;;5.50;101721.00;;;;9849901;30;20208;-77
2022/11/29 23:38:10;;;;;;;34.47;17.60;;;;;5.50;101725.00;;;;9849243;30;20211;-77
2022/11/29 23:43:12;;;;;;;36.97;16.90;;;;;5.60;101729.00;;;;9846747;30;20196;-77
2022/11/29 23:48:14;;;;;;;35.67;16.03;;;;;5.60;101730.00;;;;9852879;30;20278;-77
2022/11/29 23:53:17;;;;;;;41.33;17.93;;;;;5.60;101727.00;;;;9866800;30;20215;-77
2022/11/29 23:58:19;;;;;;;41.17;18.07;;;;;5.60;101723.00;;;;9862422;30;20237;-77
